createdAt,value
2022-10-18T00:00:20.399Z,101957.88
2022-10-18T00:00:41.945Z,101956.88
2022-10-18T00:01:05.413Z,101958.81
2022-10-18T00:01:27.116Z,101958.88
2022-10-18T00:01:48.784Z,101963.38
2022-10-18T00:02:10.486Z,101952.78
2022-10-18T00:02:33.158Z,101956.34
2022-10-18T00:02:54.757Z,101958.06
2022-10-18T00:03:16.332Z,101961.63
2022-10-18T00:03:38.826Z,101960.63
2022-10-18T00:04:00.424Z,101957.75
2022-10-18T00:04:22.979Z,101958.81
2022-10-18T00:04:44.799Z,101949.84
2022-10-18T00:05:06.850Z,101953.56
2022-10-18T00:05:28.473Z,101957.88
2022-10-18T00:05:51.628Z,101955.94
2022-10-18T00:06:13.218Z,101956.00
2022-10-18T00:06:35.601Z,101959.59
2022-10-18T00:06:58.145Z,101950.63
2022-10-18T00:07:20.742Z,101958.72
2022-10-18T00:07:42.609Z,101952.59
2022-10-18T00:08:04.384Z,101959.75
2022-10-18T00:08:26.756Z,101951.72
2022-10-18T00:08:49.353Z,101951.66
2022-10-18T00:09:11.485Z,101934.91
2022-10-18T00:09:33.103Z,101953.31
2022-10-18T00:09:54.632Z,101957.88
2022-10-18T00:10:17.246Z,101955.06
2022-10-18T00:10:38.856Z,101955.00
2022-10-18T00:11:00.419Z,101950.50
2022-10-18T00:11:23.635Z,101951.44
2022-10-18T00:11:45.281Z,101944.28
2022-10-18T00:12:09.207Z,101950.63
2022-10-18T00:12:32.731Z,101955.06
2022-10-18T00:12:54.542Z,101955.06
2022-10-18T00:13:16.450Z,101951.44
2022-10-18T00:13:38.250Z,101947.09
2022-10-18T00:14:00.821Z,101951.50
2022-10-18T00:14:22.756Z,101944.53
2022-10-18T00:14:44.406Z,101955.81
2022-10-18T00:15:07.859Z,101951.44
2022-10-18T00:15:30.516Z,101958.41
2022-10-18T00:15:53.830Z,101954.94
2022-10-18T00:16:17.344Z,101960.41
2022-10-18T00:16:38.968Z,101952.47
2022-10-18T00:17:00.624Z,101954.13
2022-10-18T00:17:23.635Z,101956.75
2022-10-18T00:17:45.238Z,101957.63
2022-10-18T00:18:06.776Z,101958.50
2022-10-18T00:18:29.764Z,101954.94
2022-10-18T00:18:52.334Z,101955.81
2022-10-18T00:19:13.938Z,101948.69
2022-10-18T00:19:35.549Z,101948.03
2022-10-18T00:19:57.148Z,101950.63
2022-10-18T00:20:18.746Z,101952.47
2022-10-18T00:20:41.282Z,101960.56
2022-10-18T00:21:05.668Z,101957.94
2022-10-18T00:21:27.287Z,101953.47
2022-10-18T00:21:49.966Z,101956.13
2022-10-18T00:22:12.506Z,101953.47
2022-10-18T00:22:35.313Z,101958.81
2022-10-18T00:22:57.060Z,101954.34
2022-10-18T00:23:18.670Z,101949.03
2022-10-18T00:23:40.796Z,101948.25
2022-10-18T00:24:07.187Z,101955.47
2022-10-18T00:24:28.814Z,101949.13
2022-10-18T00:24:50.396Z,101951.72
2022-10-18T00:25:12.435Z,101947.28
2022-10-18T00:25:34.995Z,101956.25
2022-10-18T00:26:02.061Z,101949.19
2022-10-18T00:26:28.276Z,101952.59
2022-10-18T00:26:50.006Z,101949.03
2022-10-18T00:27:13.875Z,101943.75
2022-10-18T00:27:35.869Z,101954.53
2022-10-18T00:27:57.507Z,101948.31
2022-10-18T00:28:19.113Z,101954.59
2022-10-18T00:28:41.806Z,101957.22
2022-10-18T00:29:06.833Z,101954.44
2022-10-18T00:29:28.438Z,101951.81
2022-10-18T00:29:53.543Z,101944.75
2022-10-18T00:30:15.339Z,101950.06
2022-10-18T00:30:36.964Z,101948.38
2022-10-18T00:30:59.500Z,101951.03
2022-10-18T00:31:24.618Z,101941.47
2022-10-18T00:31:46.259Z,101944.16
2022-10-18T00:32:07.851Z,101951.03
2022-10-18T00:32:30.619Z,101945.69
2022-10-18T00:32:52.367Z,101954.66
2022-10-18T00:33:13.934Z,101948.38
2022-10-18T00:33:35.504Z,101950.13
2022-10-18T00:33:59.680Z,101953.72
2022-10-18T00:34:21.237Z,101953.72
2022-10-18T00:34:42.792Z,101951.88
2022-10-18T00:35:05.446Z,101951.97
2022-10-18T00:35:27.043Z,101948.38
2022-10-18T00:35:49.592Z,101944.81
2022-10-18T00:36:11.437Z,101953.66
2022-10-18T00:36:34.431Z,101952.91
2022-10-18T00:36:57.004Z,101952.03
2022-10-18T00:37:18.696Z,101950.19
2022-10-18T00:37:40.279Z,101945.84
2022-10-18T00:38:01.818Z,101951.03
2022-10-18T00:38:23.480Z,101942.94
2022-10-18T00:38:47.065Z,101950.06
2022-10-18T00:39:12.515Z,101951.03
2022-10-18T00:39:34.949Z,101946.50
2022-10-18T00:39:56.624Z,101954.53
2022-10-18T00:40:18.205Z,101946.34
2022-10-18T00:40:40.865Z,101950.78
2022-10-18T00:41:02.621Z,101942.78
2022-10-18T00:41:27.606Z,101948.97
2022-10-18T00:41:49.933Z,101947.22
2022-10-18T00:42:56.329Z,101947.44
2022-10-18T00:43:19.112Z,101946.50
2022-10-18T00:43:58.996Z,101950.78
2022-10-18T00:44:59.125Z,101951.66
2022-10-18T00:45:21.976Z,101948.09
2022-10-18T00:45:43.813Z,101944.59
2022-10-18T00:46:05.340Z,101949.97
2022-10-18T00:46:28.853Z,101945.63
2022-10-18T00:46:52.332Z,101929.75
2022-10-18T00:47:17.888Z,101943.75
2022-10-18T00:47:42.365Z,101944.75
2022-10-18T00:48:04.896Z,101940.97
2022-10-18T00:48:27.601Z,101937.38
2022-10-18T00:48:50.361Z,101947.16
2022-10-18T00:49:15.768Z,101941.84
2022-10-18T00:49:40.784Z,101940.88
2022-10-18T00:50:05.157Z,101932.81
2022-10-18T00:50:30.853Z,101940.88
2022-10-18T00:50:53.387Z,101941.69
2022-10-18T00:51:16.792Z,101945.16
2022-10-18T00:51:44.133Z,101938.84
2022-10-18T00:52:09.435Z,101941.53
2022-10-18T00:52:35.928Z,101938.84
2022-10-18T00:53:00.791Z,101945.03
2022-10-18T00:53:24.539Z,101939.66
2022-10-18T00:53:46.314Z,101934.25
2022-10-18T00:54:08.279Z,101942.34
2022-10-18T00:54:32.484Z,101929.22
2022-10-18T00:54:55.829Z,101944.22
2022-10-18T00:55:18.991Z,101941.59
2022-10-18T00:55:40.740Z,101937.03
2022-10-18T00:56:02.487Z,101943.28
2022-10-18T00:56:26.876Z,101947.81
2022-10-18T00:56:49.963Z,101946.75
2022-10-18T00:57:12.640Z,101942.25
2022-10-18T00:57:34.836Z,101932.34
2022-10-18T00:57:57.365Z,101937.66
2022-10-18T00:58:22.300Z,101943.94
2022-10-18T00:58:46.267Z,101942.25
2022-10-18T00:59:08.258Z,101946.75
2022-10-18T00:59:30.269Z,101938.78
2022-10-18T00:59:52.987Z,101913.47
2022-10-18T01:00:15.835Z,101937.97
2022-10-18T01:00:39.082Z,101942.41
2022-10-18T01:01:00.795Z,101946.69
2022-10-18T01:01:25.848Z,101943.06
2022-10-18T01:01:51.250Z,101946.75
2022-10-18T01:02:14.891Z,101953.91
2022-10-18T01:02:37.020Z,101946.75
2022-10-18T01:02:59.372Z,101944.06
2022-10-18T01:03:22.038Z,101944.06
2022-10-18T01:03:43.800Z,101940.59
2022-10-18T01:04:05.426Z,101947.72
2022-10-18T01:04:27.023Z,101937.16
2022-10-18T01:04:48.742Z,101936.16
2022-10-18T01:05:12.500Z,101939.78
2022-10-18T01:05:38.479Z,101945.25
2022-10-18T01:06:00.500Z,101936.16
2022-10-18T01:06:23.123Z,101933.44
2022-10-18T01:07:35.208Z,101942.34
2022-10-18T01:08:23.660Z,101935.03
2022-10-18T01:08:58.203Z,101939.50
2022-10-18T01:09:28.495Z,101941.25
2022-10-18T01:09:59.710Z,101939.50
2022-10-18T01:10:29.544Z,101942.13
2022-10-18T01:11:00.686Z,101934.88
2022-10-18T01:11:59.484Z,101943.84
2022-10-18T01:12:28.181Z,101938.31
2022-10-18T01:12:57.403Z,101949.97
2022-10-18T01:13:38.633Z,101943.06
2022-10-18T01:14:13.078Z,101948.50
2022-10-18T01:14:45.945Z,101945.66
2022-10-18T01:15:14.262Z,101922.19
2022-10-18T01:15:43.778Z,101942.97
2022-10-18T01:16:13.316Z,101946.47
2022-10-18T01:16:40.427Z,101935.69
2022-10-18T01:17:07.777Z,101944.72
2022-10-18T01:17:40.292Z,101940.19
2022-10-18T01:18:17.000Z,101940.25
2022-10-18T01:18:47.908Z,101943.84
2022-10-18T01:19:27.244Z,101940.13
2022-10-18T01:20:11.841Z,101929.66
2022-10-18T01:20:56.157Z,101933.16
2022-10-18T01:21:26.543Z,101936.78
2022-10-18T01:21:52.003Z,101928.72
2022-10-18T01:22:21.681Z,101922.44
2022-10-18T01:22:47.342Z,101929.59
2022-10-18T01:23:17.852Z,101926.97
2022-10-18T01:24:10.725Z,101932.34
2022-10-18T01:24:54.733Z,101928.72
2022-10-18T01:25:29.651Z,101935.97
2022-10-18T01:25:59.188Z,101931.56
2022-10-18T01:26:39.753Z,101927.91
2022-10-18T01:27:24.388Z,101923.38
2022-10-18T01:27:54.138Z,101932.41
2022-10-18T01:28:35.388Z,101930.59
2022-10-18T01:29:08.654Z,101927.03
2022-10-18T01:29:42.963Z,101932.34
2022-10-18T01:30:35.289Z,101922.44
2022-10-18T01:31:00.916Z,101927.91
2022-10-18T01:31:25.502Z,101914.00
2022-10-18T01:31:50.393Z,101927.13
2022-10-18T01:32:15.491Z,101930.75
2022-10-18T01:32:42.916Z,101924.50
2022-10-18T01:33:12.399Z,101906.22
2022-10-18T01:33:40.759Z,101924.56
2022-10-18T01:34:07.292Z,101932.66
2022-10-18T01:34:33.776Z,101925.66
2022-10-18T01:35:01.060Z,101932.66
2022-10-18T01:35:30.642Z,101929.94
2022-10-18T01:35:58.771Z,101927.41
2022-10-18T01:36:26.148Z,101932.00
2022-10-18T01:36:52.173Z,101938.19
2022-10-18T01:37:18.177Z,101933.69
2022-10-18T01:37:41.926Z,101939.94
2022-10-18T01:38:08.677Z,101938.03
2022-10-18T01:38:32.360Z,101917.00
2022-10-18T01:38:59.076Z,101935.28
2022-10-18T01:39:26.690Z,101927.59
2022-10-18T01:39:50.519Z,101924.78
2022-10-18T01:40:14.400Z,101943.28
2022-10-18T01:40:38.316Z,101933.44
2022-10-18T01:41:04.000Z,101937.97
2022-10-18T01:41:27.108Z,101940.66
2022-10-18T01:41:50.888Z,101935.28
2022-10-18T01:42:17.963Z,101935.28
2022-10-18T01:42:40.652Z,101930.75
2022-10-18T01:43:03.329Z,101932.66
2022-10-18T01:43:28.620Z,101929.00
2022-10-18T01:43:55.361Z,101929.00
2022-10-18T01:44:21.600Z,101927.25
2022-10-18T01:44:45.472Z,101928.28
2022-10-18T01:45:10.288Z,101931.94
2022-10-18T01:45:33.557Z,101923.84
2022-10-18T01:45:56.672Z,101923.91
2022-10-18T01:46:22.604Z,101927.59
2022-10-18T01:46:47.437Z,101924.00
2022-10-18T01:47:11.628Z,101924.78
2022-10-18T01:47:36.386Z,101929.31
2022-10-18T01:47:59.311Z,101923.91
2022-10-18T01:48:21.321Z,101929.31
2022-10-18T01:48:44.087Z,101923.03
2022-10-18T01:49:05.868Z,101928.44
2022-10-18T01:49:27.535Z,101928.44
2022-10-18T01:49:49.088Z,101923.13
2022-10-18T01:50:10.704Z,101923.25
2022-10-18T01:50:35.669Z,101929.22
2022-10-18T01:50:57.495Z,101928.44
2022-10-18T01:51:22.975Z,101927.59
2022-10-18T01:51:45.482Z,101924.88
2022-10-18T01:52:34.649Z,101926.69
2022-10-18T01:52:56.798Z,101926.78
2022-10-18T01:53:26.392Z,101933.09
2022-10-18T01:53:48.912Z,101929.63
2022-10-18T01:54:16.767Z,101932.31
2022-10-18T01:54:42.690Z,101929.63
2022-10-18T01:55:05.092Z,101927.88
2022-10-18T01:55:35.225Z,101934.19
2022-10-18T01:56:23.428Z,101927.16
2022-10-18T01:56:54.911Z,101924.25
2022-10-18T01:57:23.767Z,101937.72
2022-10-18T01:57:55.637Z,101934.13
2022-10-18T01:58:22.438Z,101931.34
2022-10-18T01:58:54.551Z,101925.91
2022-10-18T01:59:33.504Z,101928.53
2022-10-18T02:00:00.696Z,101934.78
2022-10-18T02:00:27.248Z,101927.59
2022-10-18T02:01:00.302Z,101935.66
2022-10-18T02:01:33.516Z,101926.69
2022-10-18T02:02:07.229Z,101934.69
2022-10-18T02:02:41.153Z,101925.03
2022-10-18T02:03:07.060Z,101929.47
2022-10-18T02:03:29.661Z,101923.19
2022-10-18T02:03:57.475Z,101927.66
2022-10-18T02:04:29.441Z,101937.47
2022-10-18T02:05:00.003Z,101932.97
2022-10-18T02:05:29.191Z,101933.81
2022-10-18T02:05:59.901Z,101924.25
2022-10-18T02:06:27.880Z,101926.69
2022-10-18T02:06:55.204Z,101927.59
2022-10-18T02:07:24.361Z,101922.50
2022-10-18T02:08:05.629Z,101932.16
2022-10-18T02:08:41.536Z,101931.22
2022-10-18T02:09:09.520Z,101928.53
2022-10-18T02:09:39.222Z,101924.06
2022-10-18T02:10:08.535Z,101932.97
2022-10-18T02:10:34.281Z,101925.72
2022-10-18T02:11:02.632Z,101930.09
2022-10-18T02:11:27.818Z,101931.88
2022-10-18T02:11:54.973Z,101924.06
2022-10-18T02:12:18.240Z,101929.31
2022-10-18T02:12:43.911Z,101925.72
2022-10-18T02:13:07.229Z,101927.59
2022-10-18T02:13:33.365Z,101925.81
2022-10-18T02:13:59.733Z,101925.72
2022-10-18T02:14:25.113Z,101916.06
2022-10-18T02:14:48.861Z,101924.78
2022-10-18T02:15:14.329Z,101911.72
2022-10-18T02:15:40.477Z,101920.28
2022-10-18T02:16:07.841Z,101923.84
2022-10-18T02:16:36.602Z,101920.28
2022-10-18T02:17:05.472Z,101915.75
2022-10-18T02:17:30.015Z,101921.22
2022-10-18T02:17:56.085Z,101924.06
2022-10-18T02:18:23.333Z,101918.53
2022-10-18T02:18:50.612Z,101925.66
2022-10-18T02:19:18.503Z,101925.66
2022-10-18T02:19:44.919Z,101920.28
2022-10-18T02:20:09.868Z,101917.50
2022-10-18T02:20:32.434Z,101911.19
2022-10-18T02:20:54.994Z,101921.09
2022-10-18T02:21:19.416Z,101909.66
2022-10-18T02:21:44.626Z,101917.59
2022-10-18T02:22:08.061Z,101927.34
2022-10-18T02:22:33.477Z,101915.84
2022-10-18T02:22:58.307Z,101921.16
2022-10-18T02:23:23.144Z,101920.28
2022-10-18T02:23:46.608Z,101920.34
2022-10-18T02:24:09.919Z,101922.03
2022-10-18T02:24:34.678Z,101924.72
2022-10-18T02:24:59.871Z,101918.53
2022-10-18T02:25:25.353Z,101894.16
2022-10-18T02:25:49.354Z,101923.03
2022-10-18T02:26:12.409Z,101921.31
2022-10-18T02:26:34.179Z,101921.44
2022-10-18T02:26:55.782Z,101916.81
2022-10-18T02:27:17.518Z,101924.88
2022-10-18T02:27:40.812Z,101916.72
2022-10-18T02:28:03.286Z,101914.97
2022-10-18T02:28:51.848Z,101922.19
2022-10-18T02:29:14.785Z,101921.31
2022-10-18T02:29:36.891Z,101918.63
2022-10-18T02:29:58.744Z,101923.91
2022-10-18T02:30:24.313Z,101922.19
2022-10-18T02:30:54.218Z,101922.97
2022-10-18T02:31:21.761Z,101921.22
2022-10-18T02:31:45.355Z,101924.78
2022-10-18T02:32:14.897Z,101920.34
2022-10-18T02:32:41.979Z,101921.38
2022-10-18T02:33:10.220Z,101925.81
2022-10-18T02:33:39.573Z,101927.66
2022-10-18T02:34:08.030Z,101926.78
2022-10-18T02:34:34.877Z,101923.19
2022-10-18T02:35:01.379Z,101917.75
2022-10-18T02:35:28.720Z,101921.31
2022-10-18T02:35:56.177Z,101918.69
2022-10-18T02:36:23.233Z,101928.59
2022-10-18T02:36:50.349Z,101922.25
2022-10-18T02:37:14.474Z,101924.06
2022-10-18T02:37:38.941Z,101922.31
2022-10-18T02:38:03.617Z,101920.56
2022-10-18T02:38:27.043Z,101910.91
2022-10-18T02:38:54.359Z,101917.00
2022-10-18T02:39:20.845Z,101922.38
2022-10-18T02:39:47.748Z,101919.78
2022-10-18T02:40:10.723Z,101919.69
2022-10-18T02:40:32.384Z,101921.69
2022-10-18T02:40:54.025Z,101921.53
2022-10-18T02:41:22.859Z,101918.84
2022-10-18T02:41:45.480Z,101920.56
2022-10-18T02:42:09.890Z,101903.25
2022-10-18T02:42:35.302Z,101925.09
2022-10-18T02:42:58.567Z,101920.56
2022-10-18T02:43:21.087Z,101924.25
2022-10-18T02:43:42.626Z,101920.56
2022-10-18T02:44:04.543Z,101923.38
2022-10-18T02:44:27.068Z,101914.53
2022-10-18T02:44:48.605Z,101924.25
2022-10-18T02:45:12.022Z,101925.91
2022-10-18T02:45:35.446Z,101924.06
2022-10-18T02:45:57.061Z,101928.53
2022-10-18T02:46:20.596Z,101926.69
2022-10-18T02:46:42.694Z,101925.66
2022-10-18T02:47:05.897Z,101921.16
2022-10-18T02:47:28.597Z,101932.81
2022-10-18T02:47:50.352Z,101921.16
2022-10-18T02:48:11.936Z,101926.53
2022-10-18T02:48:33.519Z,101927.41
2022-10-18T02:48:56.043Z,101927.47
2022-10-18T02:49:17.627Z,101932.88
2022-10-18T02:49:39.200Z,101926.59
2022-10-18T02:50:00.777Z,101923.03
2022-10-18T02:50:23.393Z,101926.59
2022-10-18T02:50:44.980Z,101929.31
2022-10-18T02:51:06.532Z,101931.13
2022-10-18T02:51:28.280Z,101931.06
2022-10-18T02:51:49.858Z,101929.22
2022-10-18T02:52:12.431Z,101930.91
2022-10-18T02:52:34.496Z,101933.63
2022-10-18T02:52:56.037Z,101935.34
2022-10-18T02:53:17.584Z,101933.63
2022-10-18T02:53:39.167Z,101937.25
2022-10-18T02:54:00.737Z,101935.50
2022-10-18T02:54:23.880Z,101929.16
2022-10-18T02:54:45.451Z,101928.28
2022-10-18T02:55:08.113Z,101932.56
2022-10-18T02:55:38.784Z,101932.50
2022-10-18T02:56:00.381Z,101941.47
2022-10-18T02:56:23.039Z,101935.97
2022-10-18T02:56:44.593Z,101931.47
2022-10-18T02:57:06.151Z,101938.69
2022-10-18T02:57:27.854Z,101936.84
2022-10-18T02:57:50.393Z,101932.34
2022-10-18T02:58:11.937Z,101936.78
2022-10-18T02:58:33.552Z,101938.59
2022-10-18T02:58:55.131Z,101939.50
2022-10-18T02:59:17.888Z,101930.59
2022-10-18T02:59:39.472Z,101940.50
2022-10-18T03:00:01.118Z,101922.97
2022-10-18T03:00:22.685Z,101938.78
2022-10-18T03:00:44.295Z,101934.31
2022-10-18T03:01:06.975Z,101938.03
2022-10-18T03:01:29.915Z,101930.03
2022-10-18T03:01:51.583Z,101934.41
2022-10-18T03:02:13.171Z,101939.78
2022-10-18T03:02:35.928Z,101928.13
2022-10-18T03:02:57.492Z,101929.06
2022-10-18T03:03:19.029Z,101932.00
2022-10-18T03:03:40.556Z,101930.09
2022-10-18T03:04:02.232Z,101933.69
2022-10-18T03:04:24.804Z,101934.56
2022-10-18T03:04:46.372Z,101931.00
2022-10-18T03:05:08.296Z,101934.56
2022-10-18T03:05:29.937Z,101929.16
2022-10-18T03:05:52.140Z,101941.84
2022-10-18T03:06:13.792Z,101924.94
2022-10-18T03:06:36.556Z,101932.81
2022-10-18T03:06:58.141Z,101935.56
2022-10-18T03:07:19.687Z,101933.91
2022-10-18T03:07:41.285Z,101933.75
2022-10-18T03:08:03.935Z,101938.19
2022-10-18T03:08:26.063Z,101940.00
2022-10-18T03:08:47.621Z,101940.06
2022-10-18T03:09:09.935Z,101933.75
2022-10-18T03:09:31.490Z,101936.50
2022-10-18T03:09:54.031Z,101939.13
2022-10-18T03:10:15.611Z,101936.44
2022-10-18T03:10:37.157Z,101936.50
2022-10-18T03:10:58.701Z,101940.06
2022-10-18T03:11:20.307Z,101937.38
2022-10-18T03:11:42.855Z,101936.50
2022-10-18T03:12:04.834Z,101940.06
2022-10-18T03:12:26.437Z,101940.97
2022-10-18T03:12:48.048Z,101920.03
2022-10-18T03:13:09.651Z,101939.19
2022-10-18T03:13:33.827Z,101940.97
2022-10-18T03:13:55.449Z,101933.81
2022-10-18T03:14:17.036Z,101940.19
2022-10-18T03:14:38.589Z,101942.00
2022-10-18T03:15:01.134Z,101940.19
2022-10-18T03:15:22.803Z,101943.81
2022-10-18T03:15:44.376Z,101938.34
2022-10-18T03:16:06.077Z,101938.34
2022-10-18T03:16:27.733Z,101941.06
2022-10-18T03:16:51.901Z,101940.19
2022-10-18T03:17:13.467Z,101946.44
2022-10-18T03:17:35.189Z,101935.72
2022-10-18T03:17:56.859Z,101940.25
2022-10-18T03:18:18.428Z,101936.66
2022-10-18T03:18:40.961Z,101943.88
2022-10-18T03:19:02.566Z,101943.88
2022-10-18T03:19:24.189Z,101943.88
2022-10-18T03:19:45.775Z,101937.63
2022-10-18T03:20:09.165Z,101940.25
2022-10-18T03:20:30.943Z,101938.50
2022-10-18T03:20:52.534Z,101946.50
2022-10-18T03:21:14.142Z,101937.53
2022-10-18T03:21:35.792Z,101943.81
2022-10-18T03:21:58.337Z,101949.13
2022-10-18T03:22:20.041Z,101938.41
2022-10-18T03:22:41.670Z,101944.69
2022-10-18T03:23:03.345Z,101935.72
2022-10-18T03:23:25.042Z,101942.94
2022-10-18T03:23:47.603Z,101945.63
2022-10-18T03:24:09.177Z,101938.50
2022-10-18T03:24:30.764Z,101943.75
2022-10-18T03:24:52.339Z,101935.72
2022-10-18T03:25:14.120Z,101937.53
2022-10-18T03:25:36.708Z,101938.50
2022-10-18T03:25:58.274Z,101946.50
2022-10-18T03:26:21.470Z,101943.88
2022-10-18T03:26:43.065Z,101942.13
2022-10-18T03:27:05.690Z,101935.00
2022-10-18T03:27:27.259Z,101947.59
2022-10-18T03:27:48.796Z,101944.91
2022-10-18T03:28:10.482Z,101945.78
2022-10-18T03:28:32.096Z,101946.72
2022-10-18T03:28:55.744Z,101944.03
2022-10-18T03:29:17.313Z,101937.78
2022-10-18T03:29:38.899Z,101939.44
2022-10-18T03:30:00.890Z,101950.13
2022-10-18T03:30:23.425Z,101945.63
2022-10-18T03:30:44.987Z,101943.81
2022-10-18T03:31:06.582Z,101938.50
2022-10-18T03:31:28.299Z,101939.19
2022-10-18T03:31:52.212Z,101941.84
2022-10-18T03:32:13.777Z,101948.09
2022-10-18T03:32:35.644Z,101943.75
2022-10-18T03:32:57.311Z,101939.13
2022-10-18T03:33:19.126Z,101946.34
2022-10-18T03:33:41.681Z,101942.00
2022-10-18T03:34:03.251Z,101942.78
2022-10-18T03:34:24.933Z,101941.25
2022-10-18T03:34:46.498Z,101929.75
2022-10-18T03:35:10.077Z,101936.66
2022-10-18T03:35:31.720Z,101939.19
2022-10-18T03:35:53.295Z,101942.88
2022-10-18T03:36:16.110Z,101946.50
2022-10-18T03:36:38.779Z,101941.13
2022-10-18T03:37:03.378Z,101942.00
2022-10-18T03:37:26.952Z,101943.88
2022-10-18T03:37:50.203Z,101936.59
2022-10-18T03:38:11.910Z,101940.25
2022-10-18T03:38:33.534Z,101940.25
2022-10-18T03:38:56.065Z,101941.13
2022-10-18T03:39:17.770Z,101935.72
2022-10-18T03:39:39.337Z,101933.97
2022-10-18T03:40:00.933Z,101930.41
2022-10-18T03:40:23.462Z,101934.84
2022-10-18T03:40:45.012Z,101942.94
2022-10-18T03:41:06.699Z,101936.66
2022-10-18T03:41:28.573Z,101939.28
2022-10-18T03:41:50.504Z,101932.09
2022-10-18T03:42:13.075Z,101941.13
2022-10-18T03:42:35.040Z,101927.78
2022-10-18T03:42:56.739Z,101938.41
2022-10-18T03:43:18.308Z,101937.53
2022-10-18T03:43:40.855Z,101935.66
2022-10-18T03:44:02.445Z,101936.59
2022-10-18T03:44:24.138Z,101941.13
2022-10-18T03:44:45.711Z,101940.06
2022-10-18T03:45:09.199Z,101938.34
2022-10-18T03:45:31.591Z,101934.69
2022-10-18T03:45:53.389Z,101937.47
2022-10-18T03:46:14.957Z,101934.84
2022-10-18T03:46:36.555Z,101928.81
2022-10-18T03:47:00.437Z,101933.97
2022-10-18T03:47:22.028Z,101936.66
2022-10-18T03:47:43.701Z,101938.50
2022-10-18T03:48:05.823Z,101934.84
2022-10-18T03:48:27.482Z,101934.78
2022-10-18T03:48:50.032Z,101930.47
2022-10-18T03:49:11.688Z,101926.94
2022-10-18T03:49:59.820Z,101930.41
2022-10-18T03:50:21.428Z,101932.22
2022-10-18T03:50:44.649Z,101935.84
2022-10-18T03:51:06.231Z,101932.16
2022-10-18T03:51:27.792Z,101925.03
2022-10-18T03:51:49.361Z,101932.22
2022-10-18T03:52:11.048Z,101927.72
2022-10-18T03:52:33.863Z,101932.97
2022-10-18T03:52:55.812Z,101923.03
2022-10-18T03:53:17.630Z,101929.47
2022-10-18T03:53:40.148Z,101928.53
2022-10-18T03:54:01.814Z,101930.34
2022-10-18T03:54:23.411Z,101924.00
2022-10-18T03:54:44.967Z,101922.19
2022-10-18T03:55:07.547Z,101924.78
2022-10-18T03:55:30.076Z,101925.66
2022-10-18T03:55:52.106Z,101925.66
2022-10-18T03:56:13.738Z,101924.00
2022-10-18T03:56:36.239Z,101922.97
2022-10-18T03:56:57.824Z,101895.00
2022-10-18T03:57:19.422Z,101929.16
2022-10-18T03:57:40.975Z,101924.56
2022-10-18T03:58:03.775Z,101924.72
2022-10-18T03:58:25.433Z,101926.47
2022-10-18T03:58:47.057Z,101921.88
2022-10-18T03:59:08.673Z,101916.47
2022-10-18T03:59:31.200Z,101925.59
2022-10-18T03:59:52.772Z,101916.63
2022-10-18T04:00:14.729Z,101914.19
2022-10-18T04:00:36.312Z,101914.97
2022-10-18T04:00:57.846Z,101915.75
2022-10-18T04:01:20.464Z,101913.13
2022-10-18T04:01:42.132Z,101912.34
2022-10-18T04:02:05.276Z,101914.97
2022-10-18T04:02:27.964Z,101918.47
2022-10-18T04:02:52.089Z,101918.47
2022-10-18T04:03:24.636Z,101915.75
2022-10-18T04:03:46.211Z,101921.00
2022-10-18T04:04:08.728Z,101913.94
2022-10-18T04:04:30.312Z,101917.50
2022-10-18T04:04:52.301Z,101918.41
2022-10-18T04:05:14.280Z,101915.59
2022-10-18T04:05:36.667Z,101921.88
2022-10-18T04:06:00.618Z,101918.41
2022-10-18T04:06:22.164Z,101916.63
2022-10-18T04:06:43.772Z,101923.84
2022-10-18T04:07:05.470Z,101909.97
2022-10-18T04:07:28.027Z,101921.16
2022-10-18T04:07:49.748Z,101925.66
2022-10-18T04:08:11.349Z,101923.91
2022-10-18T04:08:32.927Z,101929.41
2022-10-18T04:08:56.399Z,101921.53
2022-10-18T04:09:18.053Z,101922.31
2022-10-18T04:09:39.660Z,101928.53
2022-10-18T04:10:01.397Z,101930.34
2022-10-18T04:10:23.208Z,101929.41
2022-10-18T04:10:46.431Z,101932.88
2022-10-18T04:11:08.480Z,101923.03
2022-10-18T04:11:30.036Z,101929.22
2022-10-18T04:11:51.980Z,101925.72
2022-10-18T04:12:14.529Z,101931.00
2022-10-18T04:12:36.091Z,101924.66
2022-10-18T04:12:57.644Z,101926.31
2022-10-18T04:13:19.262Z,101931.69
2022-10-18T04:13:41.828Z,101924.88
2022-10-18T04:14:03.714Z,101933.63
2022-10-18T04:14:25.367Z,101912.72
2022-10-18T04:14:46.983Z,101930.09
2022-10-18T04:15:11.468Z,101931.94
2022-10-18T04:15:33.160Z,101928.34
2022-10-18T04:15:54.715Z,101931.06
2022-10-18T04:16:16.288Z,101926.53
2022-10-18T04:16:37.903Z,101931.94
2022-10-18T04:17:00.429Z,101934.47
2022-10-18T04:17:23.384Z,101930.91
2022-10-18T04:17:44.939Z,101928.28
2022-10-18T04:18:06.586Z,101932.81
2022-10-18T04:18:29.221Z,101932.81
2022-10-18T04:18:50.803Z,101929.31
2022-10-18T04:19:12.421Z,101930.19
2022-10-18T04:19:34.065Z,101925.72
2022-10-18T04:19:56.665Z,101932.09
2022-10-18T04:20:18.289Z,101923.91
2022-10-18T04:20:39.863Z,101926.78
2022-10-18T04:21:01.444Z,101927.59
2022-10-18T04:21:24.018Z,101924.94
2022-10-18T04:21:45.549Z,101925.97
2022-10-18T04:22:07.208Z,101925.03
2022-10-18T04:22:28.806Z,101925.97
2022-10-18T04:22:51.972Z,101926.94
2022-10-18T04:23:13.564Z,101927.72
2022-10-18T04:23:37.973Z,101927.88
2022-10-18T04:24:01.562Z,101926.84
2022-10-18T04:24:23.117Z,101922.38
2022-10-18T04:24:44.748Z,101925.97
2022-10-18T04:25:06.840Z,101924.13
2022-10-18T04:25:29.788Z,101924.25
2022-10-18T04:25:51.593Z,101926.84
2022-10-18T04:26:13.265Z,101933.16
2022-10-18T04:26:34.815Z,101926.78
2022-10-18T04:26:57.366Z,101934.84
2022-10-18T04:27:19.340Z,101928.59
2022-10-18T04:27:40.954Z,101922.50
2022-10-18T04:28:04.593Z,101936.66
2022-10-18T04:28:27.164Z,101921.63
2022-10-18T04:28:48.783Z,101923.25
2022-10-18T04:29:10.502Z,101927.72
2022-10-18T04:29:32.136Z,101929.47
2022-10-18T04:29:53.675Z,101928.53
2022-10-18T04:30:16.536Z,101931.22
2022-10-18T04:30:38.114Z,101925.81
2022-10-18T04:30:59.785Z,101929.41
2022-10-18T04:31:22.324Z,101930.28
2022-10-18T04:31:43.948Z,101927.59
2022-10-18T04:32:05.676Z,101926.69
2022-10-18T04:32:29.319Z,101934.78
2022-10-18T04:32:51.824Z,101922.25
2022-10-18T04:33:13.399Z,101929.47
2022-10-18T04:33:35.361Z,101936.59
2022-10-18T04:33:57.039Z,101934.03
2022-10-18T04:34:18.647Z,101930.41
2022-10-18T04:34:41.112Z,101930.41
2022-10-18T04:35:03.010Z,101935.00
2022-10-18T04:35:25.933Z,101930.47
2022-10-18T04:35:47.738Z,101930.47
2022-10-18T04:36:10.280Z,101931.34
2022-10-18T04:36:31.943Z,101926.84
2022-10-18T04:36:54.196Z,101932.22
2022-10-18T04:37:15.759Z,101932.16
2022-10-18T04:37:37.613Z,101910.38